Time;durP1;ratioP1;P1;durP2;ratioP2;P2;SDS_P1;SDS_P2;PMS_P1;PMS_P2;Temp;Humidity;BMP_temperature;BMP_pressure;BME280_temperature;BME280_humidity;BME280_pressure;Samples;Min_cycle;Max_cycle;Signal;HPM_P1;HPM_P2
2023/01/01 00:00:39;;;;;;;6.37;3.53;;;16.20;97.60;;;;;;5093607;28;20179;-70
2023/01/01 00:03:05;;;;;;;8.93;3.50;;;16.20;97.80;;;;;;5093177;28;20168;-69
2023/01/01 00:05:31;;;;;;;6.15;3.22;;;16.20;97.60;;;;;;5094292;28;20210;-70
2023/01/01 00:07:56;;;;;;;8.20;3.50;;;16.20;97.60;;;;;;5094083;28;20164;-72
2023/01/01 00:10:28;;;;;;;3.93;3.03;;;16.20;97.80;;;;;;5093494;28;20180;-69
2023/01/01 00:12:55;;;;;;;7.67;3.50;;;16.10;98.00;;;;;;5094336;28;20164;-69
2023/01/01 00:15:20;;;;;;;5.83;3.37;;;16.00;98.00;;;;;;5093797;28;20256;-69
2023/01/01 00:17:46;;;;;;;6.10;3.53;;;16.10;98.10;;;;;;5094491;28;20658;-70
2023/01/01 00:20:13;;;;;;;5.47;3.17;;;16.00;98.00;;;;;;5094558;28;20168;-70
2023/01/01 00:22:39;;;;;;;5.00;2.93;;;15.90;97.90;;;;;;5093980;28;20206;-69
2023/01/01 00:25:05;;;;;;;6.10;3.10;;;15.90;98.00;;;;;;5094145;28;20257;-68
2023/01/01 00:27:31;;;;;;;5.27;3.13;;;15.90;98.10;;;;;;5092746;28;20190;-68
2023/01/01 00:29:57;;;;;;;6.47;2.80;;;15.80;98.30;;;;;;5094277;28;20167;-69
2023/01/01 00:32:22;;;;;;;8.40;3.00;;;15.80;98.50;;;;;;5093096;28;20172;-70
2023/01/01 00:34:48;;;;;;;4.33;2.73;;;15.80;98.70;;;;;;5094029;28;20539;-69
2023/01/01 00:37:14;;;;;;;9.27;3.27;;;15.80;98.90;;;;;;5093792;28;20615;-69
2023/01/01 00:39:40;;;;;;;6.80;2.80;;;15.70;99.10;;;;;;5093996;28;20624;-70
2023/01/01 00:42:05;;;;;;;8.57;3.33;;;15.70;99.10;;;;;;5093105;28;20228;-69
2023/01/01 00:44:31;;;;;;;6.93;2.90;;;15.60;99.30;;;;;;5093844;28;20168;-69
2023/01/01 00:46:57;;;;;;;6.33;2.93;;;15.60;99.10;;;;;;5093726;28;20638;-69
2023/01/01 00:49:22;;;;;;;8.43;3.40;;;15.70;99.20;;;;;;5094033;28;20222;-69
2023/01/01 00:51:48;;;;;;;7.23;2.70;;;15.70;99.10;;;;;;5093532;28;20167;-69
2023/01/01 00:54:13;;;;;;;5.97;2.80;;;15.70;98.70;;;;;;5093016;28;20168;-70
2023/01/01 00:56:39;;;;;;;5.00;2.90;;;15.70;98.80;;;;;;5093833;28;20172;-69
2023/01/01 00:59:05;;;;;;;6.17;3.10;;;15.70;98.90;;;;;;5093506;28;20577;-69
2023/01/01 01:01:32;;;;;;;7.37;3.20;;;15.60;98.70;;;;;;5093779;28;20178;-70
2023/01/01 01:03:57;;;;;;;7.57;2.90;;;15.70;98.90;;;;;;5093873;28;20180;-69
2023/01/01 01:06:23;;;;;;;5.80;3.10;;;15.70;98.90;;;;;;5093200;28;20554;-68
2023/01/01 01:08:49;;;;;;;6.27;3.30;;;15.60;99.10;;;;;;5092099;28;20168;-70
2023/01/01 01:11:21;;;;;;;7.07;3.87;;;15.60;99.00;;;;;;5093507;28;20171;-69
2023/01/01 01:13:49;;;;;;;6.07;3.30;;;15.60;99.00;;;;;;5093145;28;20646;-68
2023/01/01 01:16:17;;;;;;;7.33;3.00;;;15.60;99.20;;;;;;5093260;28;20225;-69
2023/01/01 01:18:44;;;;;;;6.13;2.50;;;15.50;99.20;;;;;;5093687;28;20202;-69
2023/01/01 01:21:13;;;;;;;7.67;3.00;;;15.50;99.30;;;;;;5093047;28;20168;-69
2023/01/01 01:23:38;;;;;;;5.20;2.40;;;15.40;99.50;;;;;;5093289;28;20229;-69
2023/01/01 01:26:10;;;;;;;6.83;2.83;;;15.40;99.50;;;;;;5093398;28;20199;-69
2023/01/01 01:28:35;;;;;;;9.03;2.93;;;15.40;99.60;;;;;;5093184;28;20524;-69
2023/01/01 01:31:01;;;;;;;9.57;2.50;;;15.40;99.60;;;;;;5093247;28;20232;-69
2023/01/01 01:33:27;;;;;;;3.60;2.73;;;15.50;99.60;;;;;;5093152;28;20267;-68
2023/01/01 01:35:52;;;;;;;6.00;2.70;;;15.50;99.70;;;;;;5093468;28;20179;-69
2023/01/01 01:38:18;;;;;;;2.50;2.20;;;15.50;99.80;;;;;;5093189;28;20168;-70
2023/01/01 01:40:43;;;;;;;4.97;2.70;;;15.50;99.90;;;;;;5092661;28;20223;-70
2023/01/01 01:43:24;;;;;;;6.33;2.70;;;15.50;99.80;;;;;;5093158;28;20175;-69
2023/01/01 01:45:54;;;;;;;8.27;3.27;;;15.60;99.90;;;;;;5093117;28;20207;-70
2023/01/01 01:48:22;;;;;;;6.83;3.97;;;15.60;99.80;;;;;;5093406;28;20164;-70
2023/01/01 01:50:49;;;;;;;8.73;4.23;;;15.70;99.90;;;;;;5092079;28;20179;-69
2023/01/01 01:53:26;;;;;;;9.13;4.80;;;15.70;99.90;;;;;;5091421;28;20710;-70
2023/01/01 01:55:58;;;;;;;14.10;5.03;;;15.70;99.90;;;;;;5093400;28;20650;-69
2023/01/01 01:58:25;;;;;;;13.73;5.43;;;15.70;99.90;;;;;;5091898;28;20191;-69
2023/01/01 02:00:51;;;;;;;11.87;5.80;;;15.70;99.90;;;;;;5093186;28;20180;-69
2023/01/01 02:03:30;;;;;;;12.27;6.57;;;15.70;99.90;;;;;;5093142;28;20635;-68
2023/01/01 02:05:56;;;;;;;12.43;6.63;;;15.80;99.90;;;;;;5093054;28;20214;-69
2023/01/01 02:08:22;;;;;;;13.87;4.97;;;15.80;99.90;;;;;;5092747;28;20175;-70
2023/01/01 02:10:48;;;;;;;8.20;4.80;;;15.80;99.90;;;;;;5093278;28;20175;-69
2023/01/01 02:13:14;;;;;;;5.90;3.27;;;15.80;99.90;;;;;;5093093;28;20247;-68
2023/01/01 02:16:08;;;;;;;5.73;2.80;;;15.80;99.90;;;;;;5093202;28;20573;-69
2023/01/01 02:19:01;;;;;;;6.33;2.77;;;15.70;99.90;;;;;;5093207;28;20292;-68
2023/01/01 02:21:33;;;;;;;5.57;2.40;;;15.60;99.90;;;;;;5092625;28;20184;-69
2023/01/01 02:24:17;;;;;;;6.17;2.70;;;15.70;99.90;;;;;;5093244;28;20172;-69
2023/01/01 02:26:45;;;;;;;4.73;2.50;;;15.60;99.90;;;;;;5092847;28;20662;-69
2023/01/01 02:29:21;;;;;;;4.13;2.40;;;15.60;99.90;;;;;;5093240;28;20195;-68
2023/01/01 02:31:59;;;;;;;8.80;2.60;;;15.50;99.90;;;;;;5092901;28;20176;-69
2023/01/01 02:34:30;;;;;;;6.20;2.50;;;15.50;99.90;;;;;;5094938;28;20160;-69
2023/01/01 02:36:58;;;;;;;6.33;2.57;;;15.50;99.90;;;;;;5096325;28;20185;-69
2023/01/01 02:39:28;;;;;;;6.13;2.90;;;15.50;99.90;;;;;;5096831;28;20221;-68
2023/01/01 02:41:56;;;;;;;5.83;2.40;;;15.40;99.90;;;;;;5096282;28;20234;-68
2023/01/01 02:44:27;;;;;;;6.97;2.50;;;15.40;99.90;;;;;;5096486;28;20172;-68
2023/01/01 02:46:52;;;;;;;8.07;2.60;;;15.40;99.90;;;;;;5096436;28;20164;-68
2023/01/01 02:49:18;;;;;;;4.93;2.80;;;15.40;99.90;;;;;;5096534;28;20179;-68
2023/01/01 02:52:04;;;;;;;7.43;2.63;;;15.30;99.90;;;;;;5095989;28;20172;-69
2023/01/01 02:54:57;;;;;;;8.20;2.30;;;15.30;99.90;;;;;;5096363;28;20176;-68
2023/01/01 02:57:40;;;;;;;2.70;2.40;;;15.20;99.90;;;;;;5096253;28;20178;-69
2023/01/01 03:00:18;;;;;;;5.33;2.20;;;15.30;99.90;;;;;;5096322;28;20184;-69
2023/01/01 03:03:02;;;;;;;5.73;2.70;;;15.30;99.90;;;;;;5096167;28;20647;-68
2023/01/01 03:06:21;;;;;;;7.97;2.33;;;15.20;99.90;;;;;;5095866;28;20686;-68
2023/01/01 03:08:51;;;;;;;7.57;2.73;;;15.20;99.90;;;;;;5095784;28;20246;-69
2023/01/01 03:11:20;;;;;;;2.93;2.20;;;15.10;99.90;;;;;;5085061;28;20180;-68
2023/01/01 03:13:47;;;;;;;4.80;2.67;;;15.20;99.90;;;;;;5095994;28;20187;-69
2023/01/01 03:16:25;;;;;;;6.47;2.40;;;15.20;99.90;;;;;;5095903;28;20173;-68
2023/01/01 03:19:09;;;;;;;4.70;2.37;;;15.10;99.90;;;;;;5095774;28;20175;-67
2023/01/01 03:21:48;;;;;;;8.47;3.10;;;15.10;99.90;;;;;;5095326;28;20188;-68
2023/01/01 03:24:28;;;;;;;5.83;2.57;;;15.10;99.90;;;;;;5095523;28;20214;-68
2023/01/01 03:26:58;;;;;;;6.13;2.70;;;15.10;99.90;;;;;;5095585;28;20188;-68
2023/01/01 03:29:28;;;;;;;6.67;2.60;;;15.10;99.90;;;;;;5095767;28;20251;-69
2023/01/01 03:31:56;;;;;;;7.57;2.60;;;15.10;99.90;;;;;;5095552;28;20199;-68
2023/01/01 03:34:31;;;;;;;7.97;3.23;;;15.00;99.90;;;;;;5095121;28;20176;-68
2023/01/01 03:37:02;;;;;;;4.43;2.63;;;15.00;99.90;;;;;;5095418;28;20203;-68
2023/01/01 03:39:40;;;;;;;5.17;2.53;;;14.90;99.90;;;;;;5095475;28;20183;-67
2023/01/01 03:42:11;;;;;;;3.70;2.40;;;14.80;99.90;;;;;;5095116;28;20231;-68
2023/01/01 03:44:53;;;;;;;3.70;2.50;;;14.70;99.90;;;;;;5095048;28;20170;-68
2023/01/01 03:47:19;;;;;;;4.20;2.77;;;14.50;99.90;;;;;;5095380;28;20160;-69
2023/01/01 03:49:46;;;;;;;7.73;2.73;;;14.40;99.90;;;;;;5095019;28;20168;-68
2023/01/01 03:52:22;;;;;;;4.57;2.70;;;14.30;99.90;;;;;;5095080;28;20171;-68
2023/01/01 03:55:12;;;;;;;6.30;2.63;;;14.30;99.90;;;;;;5095237;28;20167;-68
2023/01/01 03:58:10;;;;;;;6.50;2.90;;;14.30;99.90;;;;;;5094943;28;20238;-68
2023/01/01 04:00:46;;;;;;;4.80;2.90;;;14.30;99.90;;;;;;5012907;28;20576;-68
2023/01/01 04:03:22;;;;;;;5.73;2.80;;;14.30;99.90;;;;;;5012693;28;20646;-68
2023/01/01 04:05:47;;;;;;;4.77;3.07;;;14.30;99.90;;;;;;5012843;28;20206;-68
2023/01/01 04:08:15;;;;;;;7.30;2.70;;;14.30;99.90;;;;;;5012819;28;20181;-68
2023/01/01 04:10:52;;;;;;;7.23;2.77;;;14.30;99.90;;;;;;5012473;28;20220;-69
2023/01/01 04:13:18;;;;;;;8.10;2.57;;;14.30;99.90;;;;;;4996379;28;20170;-68
2023/01/01 04:15:43;;;;;;;9.03;3.00;;;14.40;99.90;;;;;;5012713;28;20173;-68
2023/01/01 04:18:09;;;;;;;7.60;2.70;;;14.40;99.90;;;;;;5012464;28;20179;-68
2023/01/01 04:20:35;;;;;;;7.47;2.80;;;14.40;99.90;;;;;;5011347;28;20248;-69
2023/01/01 04:23:01;;;;;;;5.50;2.67;;;14.40;99.90;;;;;;5011771;28;20722;-68
2023/01/01 04:25:27;;;;;;;5.67;2.67;;;14.40;99.90;;;;;;5012319;28;20237;-68
2023/01/01 04:27:53;;;;;;;5.90;2.40;;;14.30;99.90;;;;;;5012553;28;20218;-68
2023/01/01 04:30:19;;;;;;;4.37;2.40;;;14.40;99.90;;;;;;5012330;28;20182;-70
2023/01/01 04:32:45;;;;;;;3.93;2.60;;;14.30;99.90;;;;;;5011699;28;20182;-69
2023/01/01 04:35:13;;;;;;;6.10;2.70;;;14.30;99.90;;;;;;5003593;28;20203;-69
2023/01/01 04:37:40;;;;;;;8.07;2.67;;;14.30;99.90;;;;;;5094161;28;20214;-68
2023/01/01 04:40:07;;;;;;;3.83;2.60;;;14.40;99.90;;;;;;5093575;28;20184;-68
2023/01/01 04:42:34;;;;;;;7.73;2.53;;;14.40;99.90;;;;;;5093227;28;20314;-68
2023/01/01 04:44:59;;;;;;;5.23;2.20;;;14.40;99.90;;;;;;5094058;28;20208;-68
2023/01/01 04:47:25;;;;;;;4.97;2.77;;;14.40;99.90;;;;;;5093715;28;20172;-69
2023/01/01 04:49:52;;;;;;;6.27;2.90;;;14.40;99.90;;;;;;5093491;28;20261;-69
2023/01/01 04:52:18;;;;;;;4.80;2.77;;;14.40;99.90;;;;;;5093842;28;20206;-68
2023/01/01 04:54:43;;;;;;;6.13;2.63;;;14.40;99.90;;;;;;5093722;28;20215;-68
2023/01/01 04:57:09;;;;;;;6.73;2.60;;;14.40;99.90;;;;;;5093236;28;20170;-68
2023/01/01 04:59:34;;;;;;;5.50;2.67;;;14.40;99.90;;;;;;5093584;28;20187;-67
2023/01/01 05:02:00;;;;;;;6.87;2.60;;;14.30;99.90;;;;;;5093058;28;20179;-68
2023/01/01 05:04:26;;;;;;;5.10;2.73;;;14.40;99.90;;;;;;5093765;28;20631;-69
2023/01/01 05:06:51;;;;;;;3.53;2.57;;;14.40;99.90;;;;;;5093523;28;20637;-68
2023/01/01 05:09:17;;;;;;;4.97;3.07;;;14.40;99.90;;;;;;5092206;28;20192;-68
2023/01/01 05:11:43;;;;;;;6.30;2.60;;;14.50;99.90;;;;;;5093183;28;20623;-68
2023/01/01 05:14:08;;;;;;;6.27;2.50;;;14.50;99.90;;;;;;5093375;28;20171;-68
2023/01/01 05:16:36;;;;;;;7.37;2.90;;;14.50;99.90;;;;;;5092733;28;20528;-68
2023/01/01 05:19:02;;;;;;;8.03;2.90;;;14.50;99.90;;;;;;5093268;28;20176;-68
2023/01/01 05:21:36;;;;;;;6.67;2.53;;;14.60;99.90;;;;;;5093134;28;20195;-68
2023/01/01 05:24:04;;;;;;;7.53;2.70;;;14.60;99.90;;;;;;5093733;28;20179;-68
2023/01/01 05:26:36;;;;;;;5.63;2.80;;;14.60;99.90;;;;;;5092638;28;20284;-68
2023/01/01 05:29:02;;;;;;;7.50;2.77;;;14.60;99.90;;;;;;5090287;28;20175;-68
2023/01/01 05:31:32;;;;;;;5.40;2.77;;;14.60;99.90;;;;;;5092833;28;20164;-68
2023/01/01 05:33:59;;;;;;;7.53;2.87;;;14.60;99.90;;;;;;5093504;28;20631;-68
2023/01/01 05:36:30;;;;;;;4.37;2.80;;;14.60;99.90;;;;;;5093502;28;20175;-68
2023/01/01 05:38:56;;;;;;;6.77;2.87;;;14.60;99.90;;;;;;5093010;28;20176;-68
2023/01/01 05:41:22;;;;;;;8.27;2.97;;;14.60;99.90;;;;;;5091375;28;20254;-68
2023/01/01 05:43:49;;;;;;;6.63;3.10;;;14.50;99.90;;;;;;5093465;28;20176;-68
2023/01/01 05:46:17;;;;;;;4.73;2.67;;;14.60;99.90;;;;;;5092685;28;20207;-68
2023/01/01 05:48:44;;;;;;;4.90;3.00;;;14.60;99.90;;;;;;5093093;28;20164;-69
2023/01/01 05:51:11;;;;;;;6.97;2.83;;;14.50;99.90;;;;;;5092902;28;20229;-68
2023/01/01 05:53:37;;;;;;;7.20;3.50;;;14.60;99.90;;;;;;5092937;28;20184;-69
2023/01/01 05:56:03;;;;;;;9.03;3.20;;;14.50;99.90;;;;;;5093287;28;20179;-68
2023/01/01 05:58:30;;;;;;;9.37;3.17;;;14.50;99.90;;;;;;5089812;28;20210;-68
2023/01/01 06:01:03;;;;;;;8.60;3.03;;;14.50;99.90;;;;;;5088364;28;20236;-69
2023/01/01 06:03:29;;;;;;;7.53;3.30;;;14.50;99.90;;;;;;5088861;28;20275;-69
2023/01/01 06:05:54;;;;;;;6.43;2.93;;;14.50;99.90;;;;;;5090607;28;20207;-69
2023/01/01 06:08:20;;;;;;;6.77;3.30;;;14.50;99.90;;;;;;5094350;28;20171;-68
2023/01/01 06:10:45;;;;;;;6.63;2.90;;;14.60;99.90;;;;;;5096847;28;20262;-69
2023/01/01 06:13:11;;;;;;;6.43;3.50;;;14.50;99.90;;;;;;5096636;28;20168;-69
2023/01/01 06:15:37;;;;;;;5.20;2.77;;;14.50;99.90;;;;;;5095750;28;20608;-68
2023/01/01 06:18:02;;;;;;;4.30;2.73;;;14.50;99.90;;;;;;5096914;28;20224;-69
2023/01/01 06:20:28;;;;;;;6.97;3.20;;;14.40;99.90;;;;;;5096755;28;20172;-69
2023/01/01 06:22:54;;;;;;;10.93;3.60;;;14.40;99.90;;;;;;5096582;28;20192;-69
2023/01/01 06:25:19;;;;;;;11.93;3.33;;;14.40;99.90;;;;;;5096424;28;20216;-69
2023/01/01 06:27:45;;;;;;;6.50;3.07;;;14.40;99.90;;;;;;5096338;28;20615;-68
2023/01/01 06:30:10;;;;;;;9.23;3.43;;;14.40;99.90;;;;;;5096648;28;20271;-68
2023/01/01 06:32:36;;;;;;;8.83;2.93;;;14.40;99.90;;;;;;5096664;28;20646;-68
2023/01/01 06:35:01;;;;;;;5.63;3.20;;;14.40;99.90;;;;;;5096269;28;20172;-69
2023/01/01 06:37:27;;;;;;;9.13;3.27;;;14.40;99.90;;;;;;5095253;28;20176;-69
2023/01/01 06:39:53;;;;;;;7.37;2.90;;;14.40;99.90;;;;;;5096494;28;20199;-69
2023/01/01 06:42:18;;;;;;;9.17;3.37;;;14.40;99.90;;;;;;5095860;28;20310;-68
2023/01/01 06:44:44;;;;;;;8.23;3.27;;;14.40;99.90;;;;;;5096193;28;20167;-68
2023/01/01 06:47:10;;;;;;;9.03;3.13;;;14.30;99.90;;;;;;5095577;28;20279;-68
2023/01/01 06:49:35;;;;;;;8.77;3.27;;;14.30;99.90;;;;;;5096366;28;20168;-68
2023/01/01 06:52:01;;;;;;;7.17;3.00;;;14.30;99.90;;;;;;5095858;28;20488;-68
2023/01/01 06:54:27;;;;;;;8.07;2.93;;;14.30;99.90;;;;;;5095901;28;20263;-68
2023/01/01 06:56:52;;;;;;;7.17;3.53;;;14.30;99.90;;;;;;5095811;28;20515;-68
2023/01/01 06:59:18;;;;;;;5.80;3.03;;;14.20;99.90;;;;;;5096064;28;20266;-68
2023/01/01 07:01:43;;;;;;;7.17;3.40;;;14.20;99.90;;;;;;5096291;28;20688;-69
2023/01/01 07:04:15;;;;;;;5.60;3.20;;;14.20;99.90;;;;;;5095674;28;20172;-69
2023/01/01 07:06:41;;;;;;;5.67;2.87;;;14.20;99.90;;;;;;5095875;28;20563;-69
2023/01/01 07:09:08;;;;;;;7.73;3.70;;;14.20;99.90;;;;;;5094433;28;20171;-68
2023/01/01 07:11:34;;;;;;;8.23;3.77;;;14.20;99.90;;;;;;5095256;28;20188;-68
2023/01/01 07:14:00;;;;;;;8.27;3.53;;;14.20;99.90;;;;;;5095838;28;20212;-69
2023/01/01 07:16:26;;;;;;;11.90;3.80;;;14.20;99.90;;;;;;5095676;28;20183;-68
2023/01/01 07:18:51;;;;;;;8.17;3.70;;;14.10;99.90;;;;;;5095862;28;20167;-68
2023/01/01 07:21:46;;;;;;;7.77;3.33;;;14.10;99.90;;;;;;5093544;28;20333;-69
2023/01/01 07:24:13;;;;;;;11.40;4.00;;;14.10;99.90;;;;;;5095700;28;20168;-68
2023/01/01 07:26:42;;;;;;;11.73;3.50;;;14.10;99.90;;;;;;5095137;28;20211;-69
2023/01/01 07:29:08;;;;;;;8.33;3.87;;;14.10;99.90;;;;;;5095606;28;20172;-68
2023/01/01 07:31:38;;;;;;;9.53;4.17;;;14.10;99.90;;;;;;5095541;28;20175;-68
2023/01/01 07:34:05;;;;;;;6.57;3.70;;;14.10;99.90;;;;;;5095607;28;20213;-68
2023/01/01 07:36:30;;;;;;;9.90;3.70;;;14.10;99.90;;;;;;5095286;28;20164;-69
2023/01/01 07:38:56;;;;;;;7.77;3.33;;;14.00;99.90;;;;;;5095379;28;20197;-69
2023/01/01 07:41:21;;;;;;;7.53;3.50;;;14.00;99.90;;;;;;5092908;28;20234;-69
2023/01/01 07:43:47;;;;;;;10.20;3.77;;;13.90;99.90;;;;;;5095025;28;20168;-68
2023/01/01 07:46:15;;;;;;;9.10;3.67;;;13.90;99.90;;;;;;5095256;28;20203;-68
2023/01/01 07:48:41;;;;;;;6.07;3.60;;;13.90;99.90;;;;;;5093668;28;20255;-68
2023/01/01 07:51:07;;;;;;;7.57;3.60;;;13.90;99.90;;;;;;5094801;28;20172;-68
2023/01/01 07:53:32;;;;;;;10.30;3.67;;;13.80;99.90;;;;;;5094728;28;20168;-68
2023/01/01 07:55:58;;;;;;;8.47;3.60;;;13.80;99.90;;;;;;5094227;28;20251;-69
2023/01/01 07:58:23;;;;;;;7.20;3.53;;;13.80;99.90;;;;;;5095085;28;20643;-69
2023/01/01 08:00:49;;;;;;;9.83;3.93;;;13.80;99.90;;;;;;5094780;28;20176;-68
2023/01/01 08:03:15;;;;;;;9.53;3.93;;;13.80;99.90;;;;;;5094643;28;20168;-69
2023/01/01 08:05:41;;;;;;;7.17;3.70;;;13.80;99.90;;;;;;5094811;28;20211;-69
2023/01/01 08:08:08;;;;;;;7.70;3.37;;;13.80;99.90;;;;;;5094454;28;20199;-69
2023/01/01 08:10:34;;;;;;;6.87;3.50;;;13.80;99.90;;;;;;5094206;28;20201;-68
2023/01/01 08:13:00;;;;;;;6.13;3.33;;;13.80;99.90;;;;;;5094433;28;20168;-68
2023/01/01 08:15:26;;;;;;;8.73;3.60;;;13.80;99.90;;;;;;5094600;28;20180;-69
2023/01/01 08:18:00;;;;;;;7.63;3.20;;;13.70;99.90;;;;;;5094353;28;20173;-68
2023/01/01 08:20:28;;;;;;;6.50;3.50;;;13.70;99.90;;;;;;5094210;28;20171;-70
2023/01/01 08:22:53;;;;;;;6.13;3.17;;;13.70;99.90;;;;;;5093799;28;20229;-67
2023/01/01 08:25:19;;;;;;;8.40;3.20;;;13.70;99.90;;;;;;5093438;28;20269;-68
2023/01/01 08:27:45;;;;;;;11.40;3.20;;;13.70;99.90;;;;;;5093827;28;20168;-70
2023/01/01 08:30:13;;;;;;;7.03;3.27;;;13.60;99.90;;;;;;5094061;28;20175;-69
2023/01/01 08:32:39;;;;;;;6.53;3.20;;;13.60;99.90;;;;;;5093192;28;20168;-69
2023/01/01 08:35:05;;;;;;;5.70;3.40;;;13.60;99.90;;;;;;5094119;28;20680;-69
2023/01/01 08:37:30;;;;;;;7.77;3.50;;;13.60;99.90;;;;;;5093446;28;20186;-68
2023/01/01 08:39:56;;;;;;;8.80;3.40;;;13.60;99.90;;;;;;5093351;28;20511;-68
2023/01/01 08:42:22;;;;;;;7.10;3.30;;;13.60;99.90;;;;;;5093674;28;20226;-69
2023/01/01 08:44:47;;;;;;;10.07;3.43;;;13.70;99.90;;;;;;5093371;28;20638;-69
2023/01/01 08:47:31;;;;;;;8.57;3.27;;;13.70;99.90;;;;;;5092477;28;20639;-69
2023/01/01 08:49:57;;;;;;;7.77;3.13;;;13.70;99.90;;;;;;5092925;28;20623;-69
2023/01/01 08:52:22;;;;;;;10.67;3.50;;;13.80;99.90;;;;;;5093537;28;20180;-69
2023/01/01 08:54:48;;;;;;;10.80;3.57;;;13.90;99.90;;;;;;5093422;28;20168;-69
2023/01/01 08:57:14;;;;;;;8.60;3.50;;;13.90;99.90;;;;;;5093683;28;20172;-69
2023/01/01 08:59:39;;;;;;;7.73;3.33;;;13.90;99.90;;;;;;5093368;28;20195;-69
2023/01/01 09:02:05;;;;;;;5.87;3.30;;;13.90;99.90;;;;;;5093164;28;20357;-69
2023/01/01 09:04:31;;;;;;;9.43;4.07;;;13.90;99.90;;;;;;5093159;28;20319;-69
2023/01/01 09:06:57;;;;;;;7.20;3.40;;;13.90;99.90;;;;;;5093271;28;20316;-69
2023/01/01 09:09:22;;;;;;;10.90;3.43;;;13.90;99.90;;;;;;5092679;28;20767;-69
2023/01/01 09:11:55;;;;;;;10.57;3.60;;;13.90;99.90;;;;;;5093292;28;20171;-70
2023/01/01 09:14:21;;;;;;;9.47;3.87;;;13.90;99.90;;;;;;5091722;28;20168;-70
2023/01/01 09:16:47;;;;;;;11.03;3.67;;;14.00;99.90;;;;;;5092958;28;20657;-69
2023/01/01 09:19:13;;;;;;;12.33;3.73;;;13.90;99.90;;;;;;5093169;28;20172;-69
2023/01/01 09:21:38;;;;;;;7.10;3.23;;;14.00;99.90;;;;;;5092876;28;20192;-68
2023/01/01 09:24:04;;;;;;;10.80;3.83;;;14.10;99.90;;;;;;5093191;28;20627;-69
2023/01/01 09:26:30;;;;;;;9.47;3.40;;;14.20;99.90;;;;;;5093182;28;20212;-68
2023/01/01 09:28:57;;;;;;;10.83;3.57;;;14.30;99.90;;;;;;5093394;28;20660;-69
2023/01/01 09:31:22;;;;;;;6.87;3.73;;;14.40;99.90;;;;;;5093616;28;20196;-69
2023/01/01 09:33:48;;;;;;;8.07;3.77;;;14.70;99.90;;;;;;5092929;28;20662;-69
2023/01/01 09:36:19;;;;;;;9.27;3.63;;;14.70;99.90;;;;;;5092876;28;20755;-69
2023/01/01 09:38:52;;;;;;;6.73;3.03;;;14.70;99.90;;;;;;5092944;28;20221;-69
2023/01/01 09:41:33;;;;;;;10.73;3.20;;;14.80;99.90;;;;;;5092856;28;20682;-69
2023/01/01 09:43:58;;;;;;;8.97;3.37;;;14.90;99.90;;;;;;5092329;28;20171;-69
2023/01/01 09:46:25;;;;;;;9.47;3.40;;;14.70;99.90;;;;;;5092901;28;20221;-69
2023/01/01 09:48:57;;;;;;;9.60;3.30;;;14.60;99.90;;;;;;5093327;28;20164;-69
2023/01/01 09:51:25;;;;;;;7.83;3.03;;;14.70;99.90;;;;;;5092401;28;20180;-69
2023/01/01 09:54:06;;;;;;;6.53;3.13;;;14.70;99.90;;;;;;5093123;28;20164;-71
2023/01/01 09:56:34;;;;;;;6.93;2.97;;;14.80;99.90;;;;;;5092663;28;20160;-71
2023/01/01 09:59:00;;;;;;;8.10;3.33;;;14.70;99.90;;;;;;5092873;28;20167;-70
2023/01/01 10:01:32;;;;;;;8.43;3.30;;;14.80;99.90;;;;;;5091363;28;20246;-70
2023/01/01 10:04:12;;;;;;;9.20;3.20;;;14.90;99.90;;;;;;5092694;28;20168;-70
2023/01/01 10:06:48;;;;;;;7.77;3.20;;;14.90;99.90;;;;;;5092259;28;20561;-69
2023/01/01 10:09:37;;;;;;;8.33;3.40;;;15.00;99.90;;;;;;5092656;28;20623;-69
2023/01/01 10:12:14;;;;;;;8.67;3.20;;;14.90;99.90;;;;;;5091318;28;20180;-70
2023/01/01 10:14:47;;;;;;;4.07;2.67;;;14.80;99.90;;;;;;5093081;28;20637;-70
2023/01/01 10:17:21;;;;;;;7.53;3.07;;;14.80;99.90;;;;;;5092616;28;20176;-70
2023/01/01 10:19:51;;;;;;;5.77;2.77;;;14.80;99.90;;;;;;5092562;28;20175;-69
2023/01/01 10:22:22;;;;;;;7.47;2.80;;;14.90;99.90;;;;;;5092104;28;20568;-70
2023/01/01 10:24:58;;;;;;;7.27;3.07;;;15.00;99.90;;;;;;5091106;28;20174;-69
2023/01/01 10:27:43;;;;;;;6.37;2.70;;;15.10;99.90;;;;;;5092622;28;20243;-69
2023/01/01 10:30:18;;;;;;;7.13;3.00;;;15.10;99.90;;;;;;5091252;28;20180;-70
2023/01/01 10:32:47;;;;;;;8.87;3.00;;;15.10;99.90;;;;;;5092722;28;20255;-71
2023/01/01 10:35:16;;;;;;;10.17;3.13;;;15.40;99.90;;;;;;5091031;28;20175;-70
2023/01/01 10:37:42;;;;;;;9.70;2.90;;;15.60;99.90;;;;;;5092517;28;20206;-69
2023/01/01 10:40:22;;;;;;;8.40;3.07;;;15.70;99.90;;;;;;5092580;28;20168;-69
2023/01/01 10:42:56;;;;;;;8.43;2.63;;;15.70;99.90;;;;;;5092126;28;20215;-70
2023/01/01 10:45:34;;;;;;;8.73;2.90;;;15.80;99.90;;;;;;5092334;28;20195;-70
2023/01/01 10:48:13;;;;;;;7.87;3.00;;;15.70;99.90;;;;;;5090957;28;20164;-70
2023/01/01 10:50:52;;;;;;;7.23;3.10;;;15.80;99.90;;;;;;5091270;28;20171;-70
2023/01/01 10:53:37;;;;;;;9.80;3.23;;;15.90;99.90;;;;;;5092672;28;20172;-70
2023/01/01 10:56:11;;;;;;;9.60;3.03;;;16.10;99.90;;;;;;5095319;28;20186;-71
2023/01/01 10:58:45;;;;;;;9.68;3.22;;;16.20;99.90;;;;;;5095483;28;20175;-70
2023/01/01 11:01:16;;;;;;;7.07;3.30;;;16.40;99.90;;;;;;5095696;28;20655;-70
2023/01/01 11:04:16;;;;;;;8.68;3.08;;;16.30;99.90;;;;;;5095175;28;20182;-71
2023/01/01 11:06:46;;;;;;;9.40;3.10;;;16.30;99.90;;;;;;5095511;28;20229;-70
2023/01/01 11:09:24;;;;;;;8.13;2.80;;;16.30;99.90;;;;;;5095118;28;20254;-71
2023/01/01 11:12:01;;;;;;;7.38;3.00;;;16.70;99.90;;;;;;5095507;28;20176;-70
2023/01/01 11:14:37;;;;;;;7.28;2.88;;;16.60;99.90;;;;;;5094315;28;20201;-70
2023/01/01 11:17:03;;;;;;;8.20;4.18;;;16.90;99.90;;;;;;5094723;28;20168;-71
2023/01/01 11:19:38;;;;;;;9.30;3.03;;;17.00;99.90;;;;;;5095383;28;20695;-70
2023/01/01 11:22:05;;;;;;;10.30;4.55;;;16.80;99.90;;;;;;5095292;28;20275;-70
2023/01/01 11:24:32;;;;;;;9.15;3.40;;;16.90;99.90;;;;;;5095187;28;20163;-70
2023/01/01 11:27:20;;;;;;;6.03;3.58;;;16.90;99.90;;;;;;5095621;28;20212;-70
2023/01/01 11:29:46;;;;;;;6.72;3.08;;;17.00;99.90;;;;;;5095357;28;20720;-70
2023/01/01 11:32:19;;;;;;;11.23;6.50;;;17.00;99.90;;;;;;5095296;28;20187;-70
2023/01/01 11:34:48;;;;;;;11.95;4.85;;;17.00;99.90;;;;;;5094983;28;20237;-70
2023/01/01 11:37:27;;;;;;;13.35;8.82;;;16.60;99.90;;;;;;5095215;28;20170;-70
2023/01/01 11:39:56;;;;;;;12.30;3.30;;;16.50;99.90;;;;;;5094644;28;20168;-69
2023/01/01 11:42:31;;;;;;;8.17;3.30;;;16.30;99.90;;;;;;5094909;28;20250;-70
2023/01/01 11:45:03;;;;;;;10.93;3.40;;;16.30;99.90;;;;;;5094669;28;20262;-69
2023/01/01 11:47:36;;;;;;;10.27;3.30;;;16.30;99.90;;;;;;5094367;28;20168;-69
2023/01/01 11:50:16;;;;;;;7.50;2.88;;;16.20;99.90;;;;;;5094588;28;20159;-69
2023/01/01 11:52:44;;;;;;;11.10;3.27;;;16.20;99.90;;;;;;5094701;28;20172;-70
2023/01/01 11:55:19;;;;;;;11.67;3.63;;;16.10;99.90;;;;;;5094488;28;20194;-70
2023/01/01 11:57:56;;;;;;;11.10;2.90;;;16.10;99.90;;;;;;5094212;28;20171;-70
2023/01/01 12:00:21;;;;;;;10.63;3.50;;;16.00;99.90;;;;;;5094612;28;20246;-69
2023/01/01 12:03:11;;;;;;;10.30;3.70;;;15.90;99.90;;;;;;5092685;28;20263;-69
2023/01/01 12:05:48;;;;;;;7.17;3.40;;;15.90;99.90;;;;;;5094079;28;20208;-71
2023/01/01 12:08:20;;;;;;;16.90;9.10;;;15.90;99.90;;;;;;5094281;28;20262;-70
2023/01/01 12:11:04;;;;;;;10.67;4.37;;;15.70;99.90;;;;;;5094461;28;20215;-70
2023/01/01 12:13:36;;;;;;;12.50;3.90;;;15.70;99.90;;;;;;5094473;28;20164;-70
2023/01/01 12:16:10;;;;;;;21.03;13.60;;;15.50;99.90;;;;;;5092472;28;20583;-70
2023/01/01 12:18:46;;;;;;;16.53;6.90;;;15.50;99.90;;;;;;5094073;28;20244;-71
2023/01/01 12:21:24;;;;;;;9.20;3.73;;;15.60;99.90;;;;;;5093598;28;20685;-70
2023/01/01 12:23:50;;;;;;;30.10;21.57;;;15.50;99.90;;;;;;5094166;28;20171;-71
2023/01/01 12:26:31;;;;;;;18.90;15.07;;;15.50;99.90;;;;;;5094306;28;20301;-71
2023/01/01 12:29:09;;;;;;;12.67;5.40;;;15.40;99.90;;;;;;5094094;28;20164;-70
2023/01/01 12:31:43;;;;;;;13.77;3.90;;;15.40;99.90;;;;;;5093112;28;20171;-70
2023/01/01 12:34:12;;;;;;;10.70;4.57;;;15.30;99.90;;;;;;5092690;28;20623;-70
2023/01/01 12:36:45;;;;;;;9.67;4.00;;;15.30;99.90;;;;;;5092372;28;20240;-70
2023/01/01 12:39:34;;;;;;;13.93;5.03;;;15.30;99.90;;;;;;5093414;28;20209;-70
2023/01/01 12:42:18;;;;;;;10.57;3.97;;;15.40;99.90;;;;;;5093334;28;20280;-71
2023/01/01 12:44:50;;;;;;;39.37;29.70;;;15.50;99.90;;;;;;5093105;28;20577;-71
2023/01/01 12:47:21;;;;;;;22.13;16.50;;;15.40;99.90;;;;;;5093793;28;20179;-70
2023/01/01 12:50:19;;;;;;;8.93;4.13;;;15.30;99.90;;;;;;5091898;28;20275;-71
2023/01/01 12:52:59;;;;;;;12.63;6.90;;;15.30;99.90;;;;;;5093614;28;20175;-71
2023/01/01 12:55:56;;;;;;;9.40;5.17;;;15.50;99.90;;;;;;5093054;28;20523;-70
2023/01/01 12:58:36;;;;;;;30.33;23.60;;;15.50;99.90;;;;;;5092821;28;20167;-70
2023/01/01 13:01:21;;;;;;;13.43;4.10;;;15.30;99.90;;;;;;5092940;28;20176;-70